createdAt,value
2023-11-02T00:03:01.367Z,5.26
2023-11-02T00:06:34.275Z,5.21
2023-11-02T00:09:44.770Z,5.16
2023-11-02T00:12:53.854Z,5.13
2023-11-02T00:16:04.349Z,5.07
2023-11-02T00:19:20.178Z,5.06
2023-11-02T00:22:29.888Z,5.04
2023-11-02T00:25:51.883Z,5.01
2023-11-02T00:29:00.735Z,5.05
2023-11-02T00:32:10.415Z,5.11
2023-11-02T00:35:19.186Z,4.99
2023-11-02T00:38:29.007Z,4.95
2023-11-02T00:41:39.477Z,4.94
2023-11-02T00:44:50.153Z,4.81
2023-11-02T00:47:59.323Z,4.88
2023-11-02T00:51:21.332Z,4.79
2023-11-02T00:54:55.558Z,4.68
2023-11-02T00:58:12.629Z,4.71
2023-11-02T01:01:23.601Z,4.57
2023-11-02T01:04:56.202Z,4.55
2023-11-02T01:08:05.466Z,4.44
2023-11-02T01:11:16.197Z,4.61
2023-11-02T01:14:48.001Z,4.60
2023-11-02T01:17:57.111Z,4.47
2023-11-02T01:21:08.013Z,4.31
2023-11-02T01:24:25.429Z,4.19
2023-11-02T01:27:34.547Z,4.13
2023-11-02T01:31:26.797Z,4.09
2023-11-02T01:34:40.386Z,4.17
2023-11-02T01:37:50.672Z,4.23
2023-11-02T01:41:07.840Z,4.32
2023-11-02T01:44:22.390Z,4.19
2023-11-02T01:47:51.465Z,4.06
2023-11-02T01:51:08.152Z,3.99
2023-11-02T01:54:25.288Z,4.00
2023-11-02T01:57:41.198Z,4.00
2023-11-02T02:00:56.089Z,4.03
2023-11-02T02:04:17.326Z,4.09
2023-11-02T02:07:39.122Z,4.14
2023-11-02T02:11:02.593Z,4.13
2023-11-02T02:14:24.314Z,4.37
2023-11-02T02:17:45.224Z,4.21
2023-11-02T02:21:01.090Z,4.28
2023-11-02T02:24:14.316Z,4.25
2023-11-02T02:28:09.415Z,4.24
2023-11-02T02:31:41.997Z,4.18
2023-11-02T02:35:01.216Z,4.33
2023-11-02T02:38:18.442Z,4.25
2023-11-02T02:41:31.018Z,4.45
2023-11-02T02:44:43.015Z,4.53
2023-11-02T02:47:54.963Z,4.40
2023-11-02T02:51:08.432Z,4.58
2023-11-02T02:54:19.263Z,4.64
2023-11-02T02:57:31.115Z,4.64
2023-11-02T03:00:41.952Z,4.61
2023-11-02T03:03:50.696Z,4.65
2023-11-02T03:07:04.479Z,4.75
2023-11-02T03:10:15.230Z,4.56
2023-11-02T03:13:28.417Z,4.42
2023-11-02T03:16:41.167Z,4.64
2023-11-02T03:19:51.667Z,4.52
2023-11-02T03:23:07.278Z,4.65
2023-11-02T03:26:27.198Z,4.40
2023-11-02T03:29:42.972Z,4.25
2023-11-02T03:32:58.310Z,3.99
2023-11-02T03:36:11.952Z,3.96
2023-11-02T03:39:33.607Z,3.81
2023-11-02T03:42:50.493Z,3.82
2023-11-02T03:46:17.828Z,3.79
2023-11-02T03:49:31.088Z,3.91
2023-11-02T03:52:49.791Z,3.90
2023-11-02T03:56:13.213Z,4.06
2023-11-02T03:59:32.937Z,4.02
2023-11-02T04:02:50.055Z,4.04
2023-11-02T04:06:01.128Z,4.13
2023-11-02T04:09:16.181Z,4.22
2023-11-02T04:12:33.991Z,4.27
2023-11-02T04:15:43.201Z,4.33
2023-11-02T04:18:51.952Z,4.44
2023-11-02T04:22:01.502Z,4.38
2023-11-02T04:25:14.101Z,4.41
2023-11-02T04:28:26.725Z,4.31
2023-11-02T04:31:35.454Z,4.45
2023-11-02T04:34:44.143Z,4.58
2023-11-02T04:38:06.235Z,5.07
2023-11-02T04:41:15.404Z,5.50
2023-11-02T04:44:26.128Z,5.47
2023-11-02T04:47:36.275Z,5.58
2023-11-02T04:50:46.598Z,5.80
2023-11-02T04:53:56.782Z,5.81
2023-11-02T04:57:08.600Z,5.73
2023-11-02T05:00:23.418Z,5.86
2023-11-02T05:03:32.851Z,5.90
2023-11-02T05:06:41.716Z,5.82
2023-11-02T05:09:51.082Z,5.89
2023-11-02T05:13:02.454Z,6.02
2023-11-02T05:16:15.535Z,6.13
2023-11-02T05:19:26.583Z,6.23
2023-11-02T05:22:35.590Z,6.19
2023-11-02T05:25:45.245Z,6.35
2023-11-02T05:28:56.782Z,6.41
2023-11-02T05:32:10.441Z,6.47
2023-11-02T05:35:20.023Z,6.60
2023-11-02T05:38:31.397Z,6.68
2023-11-02T05:41:39.988Z,6.79
2023-11-02T05:44:51.707Z,6.89
2023-11-02T05:48:01.786Z,6.96
2023-11-02T05:51:10.579Z,7.06
2023-11-02T05:54:19.471Z,7.03
2023-11-02T05:57:28.928Z,7.11
2023-11-02T06:00:38.503Z,7.21
2023-11-02T06:03:48.865Z,7.15
2023-11-02T06:06:57.729Z,7.06
2023-11-02T06:10:07.653Z,7.17
2023-11-02T06:13:16.201Z,7.23
2023-11-02T06:16:25.523Z,7.28
2023-11-02T06:19:35.894Z,7.28
2023-11-02T06:22:44.768Z,7.26
2023-11-02T06:25:55.392Z,7.35
2023-11-02T06:29:04.840Z,7.44
2023-11-02T06:32:13.397Z,7.47
2023-11-02T06:35:23.699Z,7.54
2023-11-02T06:38:33.401Z,7.54
2023-11-02T06:41:42.268Z,7.60
2023-11-02T06:44:51.338Z,7.65
2023-11-02T06:48:00.191Z,7.66
2023-11-02T06:51:11.517Z,7.69
2023-11-02T06:54:20.617Z,7.71
2023-11-02T06:57:30.105Z,7.71
2023-11-02T07:00:39.166Z,7.68
2023-11-02T07:03:49.245Z,7.73
2023-11-02T07:06:59.442Z,7.69
2023-11-02T07:10:09.884Z,7.77
2023-11-02T07:13:20.644Z,7.84
2023-11-02T07:16:29.649Z,7.95
2023-11-02T07:19:38.387Z,8.04
2023-11-02T07:22:48.436Z,8.34
2023-11-02T07:25:57.299Z,8.61
2023-11-02T07:29:07.267Z,8.72
2023-11-02T07:32:16.107Z,8.84
2023-11-02T07:35:25.063Z,8.89
2023-11-02T07:38:38.103Z,8.99
2023-11-02T07:41:47.017Z,8.98
2023-11-02T07:44:58.683Z,9.07
2023-11-02T07:48:07.716Z,9.04
2023-11-02T07:51:17.240Z,9.06
2023-11-02T07:54:28.290Z,9.25
2023-11-02T07:57:38.515Z,9.47
2023-11-02T08:00:47.310Z,9.61
2023-11-02T08:03:56.510Z,9.69
2023-11-02T08:07:08.839Z,9.75
2023-11-02T08:10:19.369Z,9.81
2023-11-02T08:13:30.957Z,9.84
2023-11-02T08:16:41.169Z,9.90
2023-11-02T08:19:50.992Z,9.88
2023-11-02T08:23:04.653Z,9.91
2023-11-02T08:26:19.213Z,9.97
2023-11-02T08:29:30.224Z,10.08
2023-11-02T08:32:39.797Z,10.20
2023-11-02T08:35:48.536Z,10.33
2023-11-02T08:38:57.797Z,10.31
2023-11-02T08:42:08.777Z,10.22
2023-11-02T08:45:19.078Z,10.20
2023-11-02T08:48:28.929Z,10.07
2023-11-02T08:51:37.990Z,9.85
2023-11-02T08:54:46.779Z,9.89
2023-11-02T08:57:56.872Z,9.83
2023-11-02T09:01:06.688Z,9.76
2023-11-02T09:04:17.237Z,9.74
2023-11-02T09:07:27.104Z,9.82
2023-11-02T09:10:36.226Z,9.92
2023-11-02T09:13:47.135Z,10.02
2023-11-02T09:16:56.152Z,10.08
2023-11-02T09:20:10.254Z,10.20
2023-11-02T09:23:19.221Z,10.37
2023-11-02T09:26:28.522Z,10.54
2023-11-02T09:29:38.779Z,10.71
2023-11-02T09:32:47.496Z,10.93
2023-11-02T09:35:56.182Z,11.20
2023-11-02T09:39:05.142Z,11.36
2023-11-02T09:42:14.293Z,11.46
2023-11-02T09:45:24.709Z,11.46
2023-11-02T09:48:33.565Z,11.48
2023-11-02T09:51:44.679Z,11.45
2023-11-02T09:54:54.208Z,11.41
2023-11-02T09:58:04.588Z,11.48
2023-11-02T10:01:16.180Z,11.49
2023-11-02T10:04:25.011Z,11.62
2023-11-02T10:07:33.703Z,11.74
2023-11-02T10:10:44.247Z,11.96
2023-11-02T10:13:55.046Z,12.10
2023-11-02T10:17:06.210Z,12.28
2023-11-02T10:20:16.429Z,12.57
2023-11-02T10:23:25.125Z,12.72
2023-11-02T10:26:36.189Z,12.98
2023-11-02T10:29:46.510Z,13.13
2023-11-02T10:33:05.311Z,13.20
2023-11-02T10:36:14.017Z,13.38
2023-11-02T10:39:23.271Z,13.56
2023-11-02T10:42:32.133Z,13.71
2023-11-02T10:45:41.201Z,13.74
2023-11-02T10:48:55.943Z,13.84
2023-11-02T10:52:08.565Z,13.82
2023-11-02T10:55:27.255Z,13.87
2023-11-02T10:58:37.593Z,13.82
2023-11-02T11:01:48.073Z,13.77
2023-11-02T11:04:59.966Z,13.71
2023-11-02T11:08:09.803Z,13.54
2023-11-02T11:11:20.657Z,13.13
2023-11-02T11:14:30.222Z,12.96
2023-11-02T11:21:24.002Z,12.66
2023-11-02T11:24:33.958Z,12.60
2023-11-02T11:27:44.800Z,12.43
2023-11-02T11:30:54.167Z,11.97
2023-11-02T11:34:03.111Z,11.89
2023-11-02T11:37:38.633Z,11.81
2023-11-02T11:40:51.259Z,11.78
2023-11-02T11:44:08.587Z,11.82
2023-11-02T11:47:47.463Z,11.94
2023-11-02T11:50:57.250Z,12.04
2023-11-02T11:54:12.050Z,12.19
2023-11-02T11:57:58.192Z,11.95
2023-11-02T12:01:18.613Z,12.09
2023-11-02T12:04:50.211Z,12.16
2023-11-02T12:08:03.866Z,12.21
2023-11-02T12:11:15.047Z,12.22
2023-11-02T12:14:26.532Z,12.06
2023-11-02T12:17:50.593Z,12.17
2023-11-02T12:21:00.805Z,12.24
2023-11-02T12:24:13.283Z,12.07
2023-11-02T12:27:23.324Z,11.95
2023-11-02T12:30:32.418Z,11.59
2023-11-02T12:33:41.773Z,11.63
2023-11-02T12:36:53.369Z,11.51
2023-11-02T12:40:04.119Z,11.12
2023-11-02T12:43:23.093Z,11.13
2023-11-02T12:46:33.153Z,10.96
2023-11-02T12:49:41.979Z,10.77
2023-11-02T12:52:51.540Z,10.50
2023-11-02T12:56:02.324Z,10.24
2023-11-02T12:59:16.788Z,10.30
2023-11-02T13:02:27.082Z,10.17
2023-11-02T13:05:38.654Z,10.07
2023-11-02T13:08:49.392Z,10.01
2023-11-02T13:11:58.921Z,10.03
2023-11-02T13:15:12.770Z,9.98
2023-11-02T13:18:21.902Z,10.04
2023-11-02T13:21:30.754Z,10.19
2023-11-02T13:24:39.501Z,10.31
2023-11-02T13:27:48.994Z,10.59
2023-11-02T13:30:59.086Z,10.66
2023-11-02T13:34:08.886Z,10.50
2023-11-02T13:37:17.922Z,10.56
2023-11-02T13:40:28.512Z,10.61
2023-11-02T13:43:37.156Z,10.48
2023-11-02T13:46:48.881Z,10.37
2023-11-02T13:49:57.872Z,10.38
2023-11-02T13:53:06.601Z,10.64
2023-11-02T13:56:16.048Z,10.80
2023-11-02T13:59:25.026Z,10.67
2023-11-02T14:02:35.296Z,10.55
2023-11-02T14:05:45.651Z,10.54
2023-11-02T14:08:54.368Z,10.56
2023-11-02T14:12:03.005Z,10.45
2023-11-02T14:15:13.044Z,10.45
2023-11-02T14:18:24.283Z,10.44
2023-11-02T14:21:33.502Z,10.22
2023-11-02T14:24:43.095Z,10.12
2023-11-02T14:27:51.843Z,9.97
2023-11-02T14:31:00.738Z,9.95
2023-11-02T14:34:11.358Z,9.92
2023-11-02T14:37:20.253Z,9.82
2023-11-02T14:40:29.220Z,9.67
2023-11-02T14:43:37.918Z,9.66
2023-11-02T14:46:46.470Z,9.61
2023-11-02T14:49:57.250Z,9.54
2023-11-02T14:53:06.452Z,9.45
2023-11-02T14:56:15.345Z,9.45
2023-11-02T14:59:24.067Z,9.34
2023-11-02T15:02:34.576Z,9.31
2023-11-02T15:05:44.668Z,9.42
2023-11-02T15:09:01.343Z,9.27
2023-11-02T15:12:16.925Z,9.20
2023-11-02T15:15:25.652Z,9.18
2023-11-02T15:18:34.221Z,9.19
2023-11-02T15:21:47.501Z,9.18
2023-11-02T15:24:57.864Z,9.13
2023-11-02T15:28:07.612Z,9.16
2023-11-02T15:31:21.816Z,9.08
2023-11-02T15:34:32.123Z,9.03
2023-11-02T15:37:42.224Z,9.00
2023-11-02T15:40:50.835Z,8.91
2023-11-02T15:43:59.943Z,8.88
2023-11-02T15:47:08.610Z,8.78
2023-11-02T15:50:17.406Z,8.77
2023-11-02T15:53:27.564Z,8.66
2023-11-02T15:56:36.432Z,8.77
2023-11-02T15:59:45.887Z,8.74
2023-11-02T16:02:54.769Z,8.71
2023-11-02T16:06:03.892Z,8.74
2023-11-02T16:09:14.653Z,8.68
2023-11-02T16:12:24.077Z,8.65
2023-11-02T16:15:33.033Z,8.63
2023-11-02T16:18:42.027Z,8.62
2023-11-02T16:21:50.727Z,8.48
2023-11-02T16:25:00.860Z,8.44
2023-11-02T16:28:09.493Z,8.35
2023-11-02T16:31:24.728Z,8.23
2023-11-02T16:34:39.635Z,8.20
2023-11-02T16:37:53.387Z,8.18
2023-11-02T16:41:04.227Z,8.21
2023-11-02T16:44:18.226Z,7.99
2023-11-02T16:47:28.422Z,8.04
2023-11-02T16:50:38.251Z,8.17
2023-11-02T16:53:46.997Z,8.13
2023-11-02T16:56:56.967Z,8.20
2023-11-02T17:00:06.398Z,8.20
2023-11-02T17:03:15.203Z,8.07
2023-11-02T17:06:24.120Z,8.11
2023-11-02T17:09:32.796Z,8.15
2023-11-02T17:12:42.963Z,8.10
2023-11-02T17:15:54.939Z,8.15
2023-11-02T17:19:04.288Z,8.05
2023-11-02T17:22:13.199Z,7.93
2023-11-02T17:25:22.012Z,7.88
2023-11-02T17:28:32.646Z,7.97
2023-11-02T17:31:41.282Z,7.98
2023-11-02T17:34:50.018Z,8.11
2023-11-02T17:37:58.680Z,8.14
2023-11-02T17:41:07.924Z,8.16
2023-11-02T17:44:17.891Z,8.17
2023-11-02T17:47:26.503Z,8.17
2023-11-02T17:50:35.297Z,8.04
2023-11-02T17:53:43.883Z,7.82
2023-11-02T17:56:52.781Z,7.94
2023-11-02T18:00:04.756Z,7.94
2023-11-02T18:03:20.906Z,8.01
2023-11-02T18:06:29.586Z,8.02
2023-11-02T18:09:38.254Z,8.01
2023-11-02T18:12:46.829Z,7.95
2023-11-02T18:15:56.888Z,8.00
2023-11-02T18:19:05.845Z,7.88
2023-11-02T18:22:14.514Z,7.90
2023-11-02T18:25:23.364Z,7.89
2023-11-02T18:28:32.154Z,7.97
2023-11-02T18:31:42.311Z,8.03
2023-11-02T18:34:50.968Z,7.99
2023-11-02T18:38:00.112Z,8.01
2023-11-02T18:41:08.767Z,8.02
2023-11-02T18:44:17.997Z,8.01
2023-11-02T18:47:27.866Z,8.04
2023-11-02T18:50:36.687Z,7.83
2023-11-02T18:53:47.557Z,7.94
2023-11-02T18:56:56.258Z,7.94
2023-11-02T19:00:07.757Z,7.85
2023-11-02T19:03:17.643Z,7.75
2023-11-02T19:06:29.993Z,7.67
2023-11-02T19:09:39.142Z,7.64
2023-11-02T19:12:49.028Z,7.62
2023-11-02T19:15:57.678Z,7.68
2023-11-02T19:19:08.137Z,7.64
2023-11-02T19:22:17.172Z,7.76
2023-11-02T19:25:25.755Z,7.71
2023-11-02T19:28:35.749Z,7.72
2023-11-02T19:31:45.803Z,7.67
2023-11-02T19:34:56.218Z,7.57
2023-11-02T19:38:04.961Z,7.55
2023-11-02T19:41:13.606Z,7.54
2023-11-02T19:44:22.709Z,7.56
2023-11-02T19:47:31.627Z,7.58
2023-11-02T19:50:42.080Z,7.51
2023-11-02T19:53:50.819Z,7.57
2023-11-02T19:56:59.377Z,7.48
2023-11-02T20:00:09.624Z,7.58
2023-11-02T20:03:21.150Z,7.57
2023-11-02T20:06:31.241Z,7.64
2023-11-02T20:09:40.034Z,7.56
2023-11-02T20:12:48.844Z,7.57
2023-11-02T20:15:57.697Z,7.59
2023-11-02T20:19:06.751Z,7.34
2023-11-02T20:22:17.140Z,7.51
2023-11-02T20:25:26.308Z,7.52
2023-11-02T20:28:35.118Z,7.48
2023-11-02T20:31:46.294Z,7.45
2023-11-02T20:34:55.103Z,7.42
2023-11-02T20:38:05.049Z,7.45
2023-11-02T20:41:15.073Z,7.48
2023-11-02T20:44:23.991Z,7.50
2023-11-02T20:47:34.746Z,7.47
2023-11-02T20:50:44.565Z,7.42
2023-11-02T20:53:54.415Z,7.36
2023-11-02T20:57:03.230Z,7.39
2023-11-02T21:00:15.395Z,7.43
2023-11-02T21:03:24.202Z,7.36
2023-11-02T21:06:32.770Z,7.31
2023-11-02T21:09:42.253Z,7.30
2023-11-02T21:12:52.241Z,7.35
2023-11-02T21:16:06.352Z,7.30
2023-11-02T21:19:15.890Z,7.23
2023-11-02T21:22:24.721Z,7.25
2023-11-02T21:25:33.419Z,7.23
2023-11-02T21:28:43.860Z,7.28
2023-11-02T21:31:52.529Z,7.22
2023-11-02T21:35:01.153Z,7.24
2023-11-02T21:38:09.787Z,7.24
2023-11-02T21:41:21.302Z,7.22
2023-11-02T21:44:33.354Z,7.23
2023-11-02T21:47:42.402Z,7.25
2023-11-02T21:50:52.293Z,7.24
2023-11-02T21:54:00.937Z,7.27
2023-11-02T21:57:09.477Z,7.27
2023-11-02T22:00:20.531Z,7.24
2023-11-02T22:03:29.213Z,7.23
2023-11-02T22:06:38.421Z,7.13
2023-11-02T22:09:47.144Z,7.16
2023-11-02T22:12:55.984Z,7.14
2023-11-02T22:16:07.240Z,7.09
2023-11-02T22:19:17.458Z,7.09
2023-11-02T22:22:29.244Z,7.14
2023-11-02T22:25:38.052Z,7.11
2023-11-02T22:28:50.040Z,7.12
2023-11-02T22:32:01.383Z,7.16
2023-11-02T22:35:10.806Z,7.05
2023-11-02T22:38:19.440Z,7.09
2023-11-02T22:41:28.001Z,7.01
2023-11-02T22:44:36.602Z,6.95
2023-11-02T22:47:46.602Z,6.99
2023-11-02T22:50:55.768Z,7.04
2023-11-02T22:54:04.551Z,7.00
2023-11-02T22:57:13.143Z,7.01
2023-11-02T23:00:25.296Z,6.95
2023-11-02T23:03:36.471Z,6.95
2023-11-02T23:06:45.288Z,6.88
2023-11-02T23:09:54.001Z,6.85
2023-11-02T23:13:02.652Z,6.82
2023-11-02T23:16:13.223Z,6.75
2023-11-02T23:19:23.397Z,6.68
2023-11-02T23:22:32.531Z,6.74
2023-11-02T23:25:41.721Z,6.72
2023-11-02T23:28:59.376Z,6.80
2023-11-02T23:32:14.763Z,6.79
2023-11-02T23:35:25.183Z,6.88
2023-11-02T23:38:33.793Z,6.84
2023-11-02T23:41:43.165Z,6.85
2023-11-02T23:44:52.826Z,6.85
2023-11-02T23:48:01.452Z,6.86
2023-11-02T23:51:11.708Z,6.80
2023-11-02T23:54:20.359Z,6.79
2023-11-02T23:57:29.063Z,6.78
